Time;durP1;ratioP1;P1;durP2;ratioP2;P2;SDS_P1;SDS_P2;PMS_P1;PMS_P2;Temp;Humidity;BMP_temperature;BMP_pressure;BME280_temperature;BME280_humidity;BME280_pressure;Samples;Min_cycle;Max_cycle;Signal;HPM_P1;HPM_P2
2023/11/10 00:01:47;;;;;;;0.00;0.00;;;;;;;7.96;75.91;98257.06;7360467;19;20018;-58
2023/11/10 00:04:14;;;;;;;0.10;0.10;;;;;;;7.96;75.70;98257.06;7355807;19;20006;-57
2023/11/10 00:06:40;;;;;;;0.00;0.00;;;;;;;7.98;75.86;98255.22;7357442;19;20025;-56
2023/11/10 00:09:05;;;;;;;0.00;0.00;;;;;;;7.85;75.56;98234.19;7356449;19;20002;-59
2023/11/10 00:11:31;;;;;;;0.10;0.10;;;;;;;7.98;75.88;98253.44;7355833;19;20015;-57
2023/11/10 00:13:57;;;;;;;0.10;0.10;;;;;;;7.90;75.78;98244.34;7354104;19;20555;-58
2023/11/10 00:16:22;;;;;;;0.10;0.10;;;;;;;8.02;75.61;98257.56;7355514;19;20479;-59
2023/11/10 00:18:49;;;;;;;0.10;0.10;;;;;;;8.04;75.99;98260.94;7358980;19;20014;-58
2023/11/10 00:21:19;;;;;;;0.10;0.10;;;;;;;8.07;76.12;98258.19;7362700;19;20014;-58
2023/11/10 00:23:44;;;;;;;0.10;0.10;;;;;;;8.07;75.88;98254.75;7361600;19;20014;-57
2023/11/10 00:26:24;;;;;;;0.10;0.10;;;;;;;8.12;76.14;98250.16;7361561;19;20015;-58
2023/11/10 00:28:50;;;;;;;0.10;0.10;;;;;;;8.10;76.21;98248.53;7361025;19;20034;-58
2023/11/10 00:31:18;;;;;;;0.10;0.10;;;;;;;8.05;76.17;98241.81;7361526;19;20343;-55
2023/11/10 00:33:44;;;;;;;0.10;0.10;;;;;;;8.10;76.04;98243.34;7364471;19;20034;-56
2023/11/10 00:36:09;;;;;;;0.10;0.10;;;;;;;8.10;76.13;98235.53;7358924;19;20018;-56
2023/11/10 00:38:35;;;;;;;0.00;0.00;;;;;;;8.09;75.67;98237.31;7360882;19;20877;-57
2023/11/10 00:41:00;;;;;;;0.10;0.10;;;;;;;8.09;75.89;98239.06;7360991;19;20006;-58
2023/11/10 00:43:26;;;;;;;0.10;0.10;;;;;;;8.04;76.22;98237.53;7360265;19;20413;-58
2023/11/10 00:45:52;;;;;;;0.10;0.10;;;;;;;8.06;76.26;98233.13;7357741;19;20018;-58
2023/11/10 00:48:18;;;;;;;0.10;0.10;;;;;;;8.04;76.34;98226.31;7362153;19;20050;-59
2023/11/10 00:50:43;;;;;;;0.03;0.03;;;;;;;8.05;76.37;98235.78;7363722;19;20006;-59
2023/11/10 00:53:09;;;;;;;0.00;0.00;;;;;;;8.04;76.44;98232.34;7361037;19;20384;-58
2023/11/10 00:55:34;;;;;;;0.10;0.10;;;;;;;7.99;76.49;98221.34;7361277;19;20019;-57
2023/11/10 00:57:59;;;;;;;0.10;0.10;;;;;;;8.02;76.45;98226.38;7364451;19;20090;-57
2023/11/10 01:00:26;;;;;;;0.00;0.00;;;;;;;8.02;76.88;98226.38;7362939;19;20286;-56
2023/11/10 01:02:54;;;;;;;0.10;0.10;;;;;;;8.01;76.78;98222.13;7357368;19;20035;-58
2023/11/10 01:05:20;;;;;;;0.10;0.10;;;;;;;8.01;76.90;98219.53;7366628;19;20015;-58
2023/11/10 01:07:46;;;;;;;0.00;0.00;;;;;;;7.88;77.02;98196.84;7362591;19;20088;-57
2023/11/10 01:10:12;;;;;;;0.10;0.10;;;;;;;8.02;76.90;98220.34;7359574;19;21018;-57
2023/11/10 01:12:37;;;;;;;0.00;0.00;;;;;;;8.02;77.31;98218.59;7361570;19;20017;-58
2023/11/10 01:15:04;;;;;;;0.10;0.10;;;;;;;8.00;77.31;98212.63;7364100;19;20016;-57
2023/11/10 01:17:30;;;;;;;0.00;0.00;;;;;;;7.96;77.21;98211.13;7373284;19;20026;-58
2023/11/10 01:19:58;;;;;;;0.00;0.00;;;;;;;8.03;76.95;98217.66;7364807;19;20433;-58
2023/11/10 01:22:26;;;;;;;0.10;0.10;;;;;;;8.09;77.15;98220.88;7366528;19;20017;-57
2023/11/10 01:24:51;;;;;;;0.00;0.00;;;;;;;8.02;77.12;98205.59;7370221;19;20018;-58
2023/11/10 01:27:18;;;;;;;0.10;0.10;;;;;;;8.11;76.95;98213.81;7364221;19;20006;-57
2023/11/10 01:29:45;;;;;;;0.10;0.10;;;;;;;8.13;77.28;98219.78;7365291;19;20118;-58
2023/11/10 01:32:12;;;;;;;;;;;;;;;8.21;76.62;98220.22;7367650;19;20014;-59
2023/11/10 01:34:37;;;;;;;0.00;0.00;;;;;;;8.16;76.78;98217.00;7365806;19;19926;-58
2023/11/10 01:37:03;;;;;;;0.10;0.10;;;;;;;8.22;76.72;98227.13;7365712;19;20091;-56
2023/11/10 01:39:28;;;;;;;0.10;0.10;;;;;;;8.22;76.96;98232.31;7364631;19;20021;-58
2023/11/10 01:41:53;;;;;;;0.10;0.10;;;;;;;8.24;77.14;98238.25;7359502;19;20007;-58
2023/11/10 01:44:19;;;;;;;0.08;0.08;;;;;;;8.24;77.23;98230.47;7371047;19;20038;-58
2023/11/10 01:46:48;;;;;;;0.10;0.10;;;;;;;8.30;77.00;98241.38;7368357;19;20349;-58
2023/11/10 01:49:15;;;;;;;0.05;0.05;;;;;;;8.31;77.37;98242.22;7367463;19;20014;-58
2023/11/10 01:51:41;;;;;;;0.10;0.10;;;;;;;8.32;77.27;98238.72;7363834;19;20078;-57
2023/11/10 01:54:11;;;;;;;0.10;0.10;;;;;;;8.34;76.76;98242.06;7368108;19;20784;-57
2023/11/10 01:56:36;;;;;;;0.10;0.10;;;;;;;8.35;76.98;98242.88;7364212;19;19998;-59
2023/11/10 01:59:06;;;;;;;0.00;0.00;;;;;;;8.43;77.16;98254.59;7368811;19;20013;-58
2023/11/10 02:01:34;;;;;;;0.10;0.10;;;;;;;8.43;77.20;98254.59;7366324;19;20797;-58
2023/11/10 02:04:02;;;;;;;0.00;0.00;;;;;;;8.47;76.77;98256.13;7369868;19;20473;-59
2023/11/10 02:06:29;;;;;;;0.00;0.00;;;;;;;8.41;76.95;98248.63;7368638;19;20042;-58
2023/11/10 02:08:54;;;;;;;0.10;0.10;;;;;;;8.52;77.05;98261.94;7363967;19;20018;-59
2023/11/10 02:11:20;;;;;;;0.10;0.10;;;;;;;8.55;76.54;98260.91;7370262;19;20592;-56
2023/11/10 02:13:45;;;;;;;0.10;0.10;;;;;;;8.49;76.87;98259.47;7375818;19;20781;-58
2023/11/10 02:16:11;;;;;;;0.03;0.03;;;;;;;8.58;76.57;98269.41;7372438;19;20035;-58
2023/11/10 02:18:36;;;;;;;0.05;0.05;;;;;;;8.61;76.72;98275.34;7366034;19;20369;-57
2023/11/10 02:21:01;;;;;;;0.10;0.10;;;;;;;8.63;76.96;98268.31;7361864;19;20070;-59
2023/11/10 02:23:27;;;;;;;0.10;0.10;;;;;;;8.65;76.88;98276.88;7364114;19;20006;-58
2023/11/10 02:25:53;;;;;;;0.00;0.00;;;;;;;8.66;76.55;98278.53;7347904;19;20805;-58
2023/11/10 02:28:19;;;;;;;0.10;0.10;;;;;;;8.43;76.72;98236.41;7362485;19;20469;-57
2023/11/10 02:30:45;;;;;;;0.05;0.05;;;;;;;8.62;76.51;98266.63;7364309;19;20014;-60
2023/11/10 02:33:10;;;;;;;0.08;0.08;;;;;;;8.68;76.82;98282.75;7373517;19;20006;-58
2023/11/10 02:35:35;;;;;;;0.00;0.00;;;;;;;8.70;76.62;98285.25;7363258;19;20466;-58
2023/11/10 02:38:01;;;;;;;0.10;0.10;;;;;;;8.70;76.62;98280.91;7366008;19;20082;-57
2023/11/10 02:40:26;;;;;;;0.00;0.00;;;;;;;8.73;76.56;98288.56;7363059;19;20450;-58
2023/11/10 02:42:51;;;;;;;0.10;0.10;;;;;;;8.69;76.60;98288.78;7366179;19;20038;-56
2023/11/10 02:45:17;;;;;;;0.10;0.10;;;;;;;8.69;76.43;98286.19;7357453;19;20140;-58
2023/11/10 02:47:43;;;;;;;0.00;0.00;;;;;;;8.75;76.58;98298.88;7365875;19;20003;-58
2023/11/10 02:50:09;;;;;;;0.10;0.10;;;;;;;8.72;76.42;98299.06;7359867;19;20015;-56
2023/11/10 02:52:34;;;;;;;0.10;0.10;;;;;;;8.76;76.52;98305.75;7366066;19;20634;-58
2023/11/10 02:55:00;;;;;;;0.10;0.10;;;;;;;8.77;76.80;98312.66;7360320;19;20530;-58
2023/11/10 02:57:26;;;;;;;0.00;0.00;;;;;;;8.72;76.57;98314.66;7361523;19;20017;-58
2023/11/10 02:59:51;;;;;;;0.10;0.10;;;;;;;8.75;76.35;98320.53;7355791;19;20818;-58
2023/11/10 03:02:17;;;;;;;0.00;0.00;;;;;;;8.66;76.50;98304.56;7366569;19;20007;-59
2023/11/10 03:04:43;;;;;;;0.10;0.10;;;;;;;8.76;76.37;98331.75;7363612;19;20105;-58
2023/11/10 03:07:09;;;;;;;0.10;0.10;;;;;;;8.78;76.62;98335.97;7364341;19;20011;-57
2023/11/10 03:09:34;;;;;;;0.03;0.03;;;;;;;8.78;76.66;98345.56;7366118;19;20014;-54
2023/11/10 03:12:00;;;;;;;0.00;0.00;;;;;;;8.77;76.73;98349.09;7355230;19;20382;-58
2023/11/10 03:14:25;;;;;;;0.10;0.10;;;;;;;8.76;76.31;98347.38;7364337;19;20027;-56
2023/11/10 03:16:51;;;;;;;0.10;0.10;;;;;;;8.81;76.66;98355.78;7365734;19;20731;-57
2023/11/10 03:19:16;;;;;;;0.00;0.00;;;;;;;8.79;76.36;98358.47;7365262;19;20927;-58
2023/11/10 03:21:42;;;;;;;0.10;0.10;;;;;;;8.79;76.53;98363.69;7363864;19;20622;-59
2023/11/10 03:24:07;;;;;;;0.00;0.00;;;;;;;8.80;76.31;98375.75;7368301;19;20007;-57
2023/11/10 03:26:33;;;;;;;0.00;0.00;;;;;;;8.79;76.79;98378.44;7372698;19;20013;-58
2023/11/10 03:28:58;;;;;;;0.03;0.03;;;;;;;8.81;76.35;98387.00;7364141;19;20420;-58
2023/11/10 03:31:28;;;;;;;0.10;0.10;;;;;;;8.84;76.59;98394.66;7360055;19;22226;-58
2023/11/10 03:33:54;;;;;;;0.10;0.10;;;;;;;8.78;76.45;98395.00;7364823;19;20014;-58
2023/11/10 03:36:19;;;;;;;0.10;0.10;;;;;;;8.82;76.58;98404.31;7363144;19;20625;-57
2023/11/10 03:38:45;;;;;;;0.00;0.00;;;;;;;8.82;76.69;98407.78;7362594;19;20479;-57
2023/11/10 03:41:10;;;;;;;0.00;0.00;;;;;;;8.83;76.63;98408.59;7359777;19;20010;-58
2023/11/10 03:43:35;;;;;;;0.10;0.10;;;;;;;8.82;76.46;98414.75;7358440;19;20478;-58
2023/11/10 03:46:01;;;;;;;0.00;0.00;;;;;;;8.84;76.32;98425.91;7363897;19;20014;-58
2023/11/10 03:48:27;;;;;;;0.10;0.10;;;;;;;8.83;76.64;98421.63;7366591;19;20016;-58
2023/11/10 03:50:52;;;;;;;0.10;0.10;;;;;;;8.84;76.69;98428.50;7359586;19;20009;-56
2023/11/10 03:53:18;;;;;;;0.10;0.10;;;;;;;8.85;76.68;98424.97;7364749;19;20402;-56
2023/11/10 03:55:43;;;;;;;0.10;0.10;;;;;;;8.84;76.49;98423.28;7360428;19;20010;-57
2023/11/10 03:58:09;;;;;;;0.10;0.10;;;;;;;8.85;76.48;98435.38;7354387;19;20860;-58
2023/11/10 04:00:34;;;;;;;0.10;0.10;;;;;;;8.83;76.41;98442.44;7365013;19;20007;-57
2023/11/10 04:03:00;;;;;;;0.10;0.10;;;;;;;8.85;76.50;98451.00;7362077;19;20007;-58
2023/11/10 04:05:26;;;;;;;0.10;0.10;;;;;;;8.85;76.55;98451.00;7363121;19;20034;-58
2023/11/10 04:07:52;;;;;;;0.05;0.05;;;;;;;8.84;76.59;98464.94;7364152;19;20010;-59
2023/11/10 04:10:20;;;;;;;0.00;0.00;;;;;;;8.80;76.38;98468.59;7364641;19;20042;-59
2023/11/10 04:12:46;;;;;;;0.10;0.10;;;;;;;8.80;76.36;98479.84;7367110;19;20015;-58
2023/11/10 04:15:12;;;;;;;0.08;0.08;;;;;;;8.67;76.60;98462.34;7364040;19;20470;-57
2023/11/10 04:17:38;;;;;;;0.00;0.00;;;;;;;8.42;76.67;98432.38;7333221;19;20658;-57
2023/11/10 04:20:04;;;;;;;0.10;0.10;;;;;;;8.75;76.73;98492.25;7360705;19;20017;-57
2023/11/10 04:22:30;;;;;;;0.00;0.00;;;;;;;8.74;76.52;98506.19;7363782;19;20756;-57
2023/11/10 04:24:56;;;;;;;0.10;0.10;;;;;;;8.68;76.46;98500.47;7364674;19;20015;-58
2023/11/10 04:27:22;;;;;;;0.10;0.10;;;;;;;8.72;76.86;98504.59;7364093;19;20368;-58
2023/11/10 04:29:47;;;;;;;0.10;0.10;;;;;;;8.72;76.78;98509.81;7359463;19;20021;-56
2023/11/10 04:32:13;;;;;;;0.10;0.10;;;;;;;8.70;76.54;98517.66;7357473;19;20355;-58
2023/11/10 04:34:38;;;;;;;0.00;0.00;;;;;;;8.67;76.84;98523.03;7372495;19;20038;-58
2023/11/10 04:37:06;;;;;;;0.00;0.00;;;;;;;8.66;76.75;98534.34;7340581;19;20166;-58
2023/11/10 04:39:31;;;;;;;;;;;;;;;8.70;75.69;98548.06;7365533;19;20124;-57
2023/11/10 04:41:57;;;;;;;0.10;0.10;;;;;;;8.63;76.39;98559.69;7331835;19;19914;-59
2023/11/10 04:44:23;;;;;;;0.10;0.10;;;;;;;8.60;76.12;98559.81;7361659;19;20453;-57
2023/11/10 04:46:48;;;;;;;0.10;0.10;;;;;;;8.52;76.14;98557.63;7362881;19;20021;-57
2023/11/10 04:49:14;;;;;;;0.10;0.10;;;;;;;8.50;76.39;98568.06;7362092;19;20015;-56
2023/11/10 04:51:39;;;;;;;0.10;0.10;;;;;;;7.92;76.41;98487.66;7368950;19;20011;-58
2023/11/10 04:54:05;;;;;;;0.10;0.10;;;;;;;8.42;76.39;98585.00;7363733;19;20864;-58
2023/11/10 04:56:31;;;;;;;0.10;0.10;;;;;;;8.33;76.16;98596.63;7366129;19;20026;-58
2023/11/10 04:58:56;;;;;;;0.00;0.00;;;;;;;8.42;76.32;98611.00;7365320;19;20114;-58
2023/11/10 05:01:22;;;;;;;0.10;0.10;;;;;;;8.39;76.25;98617.16;7361874;19;20045;-57
2023/11/10 05:03:48;;;;;;;0.10;0.10;;;;;;;8.36;76.13;98625.09;7366899;19;20888;-58
2023/11/10 05:06:13;;;;;;;0.10;0.10;;;;;;;8.28;76.06;98627.19;7368537;19;20991;-58
2023/11/10 05:08:39;;;;;;;0.10;0.10;;;;;;;8.30;76.31;98656.56;7370354;19;19998;-57
2023/11/10 05:11:04;;;;;;;0.10;0.10;;;;;;;8.28;76.97;98659.25;7367851;19;20078;-58
2023/11/10 05:13:30;;;;;;;0.10;0.10;;;;;;;8.26;76.48;98675.81;7369036;19;20034;-57
2023/11/10 05:15:55;;;;;;;0.10;0.10;;;;;;;8.24;76.56;98677.66;7368245;19;20014;-57
2023/11/10 05:18:27;;;;;;;0.00;0.00;;;;;;;8.18;76.84;98677.94;7368537;19;20462;-56
2023/11/10 05:20:53;;;;;;;0.00;0.00;;;;;;;8.24;76.57;98693.25;7369070;19;20037;-58
2023/11/10 05:23:18;;;;;;;0.00;0.00;;;;;;;8.20;76.82;98686.50;7368554;19;20087;-58
2023/11/10 05:25:44;;;;;;;0.00;0.00;;;;;;;8.19;76.59;98696.06;7370451;19;20090;-57
2023/11/10 05:28:09;;;;;;;0.03;0.03;;;;;;;8.18;76.66;98703.94;7370136;19;20411;-56
2023/11/10 05:30:34;;;;;;;0.00;0.00;;;;;;;8.06;76.61;98695.78;7373488;19;20031;-56
2023/11/10 05:33:00;;;;;;;0.00;0.00;;;;;;;8.09;76.63;98719.94;7364435;19;20550;-56
2023/11/10 05:35:25;;;;;;;0.10;0.10;;;;;;;8.10;77.02;98726.81;7367464;19;20013;-57
2023/11/10 05:37:51;;;;;;;0.10;0.10;;;;;;;8.07;76.80;98733.84;7364600;19;20014;-58
2023/11/10 05:40:17;;;;;;;0.10;0.10;;;;;;;7.98;76.97;98731.66;7369289;19;20015;-58
2023/11/10 05:42:43;;;;;;;0.03;0.03;;;;;;;8.01;77.01;98752.31;7368857;19;20036;-58
2023/11/10 05:45:09;;;;;;;0.00;0.00;;;;;;;7.94;77.28;98758.69;7366443;19;20027;-58
2023/11/10 05:47:34;;;;;;;0.00;0.00;;;;;;;7.91;77.02;98769.22;7368286;19;20461;-57
2023/11/10 05:49:59;;;;;;;0.00;0.00;;;;;;;7.80;77.04;98761.84;7369325;19;20011;-57
2023/11/10 05:52:26;;;;;;;0.05;0.05;;;;;;;7.90;77.08;98787.47;7366764;19;20013;-58
2023/11/10 05:54:52;;;;;;;0.00;0.00;;;;;;;7.86;77.07;98799.75;7368527;19;20018;-58
2023/11/10 05:57:17;;;;;;;0.00;0.00;;;;;;;7.82;76.79;98815.53;7366571;19;20015;-58
2023/11/10 05:59:46;;;;;;;0.10;0.10;;;;;;;7.82;76.06;98821.59;7369261;19;20098;-56
2023/11/10 06:02:12;;;;;;;0.00;0.00;;;;;;;7.79;76.43;98832.09;7356364;19;20089;-58
2023/11/10 06:04:38;;;;;;;0.00;0.00;;;;;;;7.65;77.03;98824.84;7368707;19;20394;-57
2023/11/10 06:07:04;;;;;;;0.10;0.10;;;;;;;7.74;76.73;98849.63;7359611;19;20132;-58
2023/11/10 06:09:31;;;;;;;0.10;0.10;;;;;;;7.71;76.96;98860.16;7365026;19;20010;-59
2023/11/10 06:11:58;;;;;;;0.10;0.10;;;;;;;7.67;77.08;98875.00;7369988;19;20006;-57
2023/11/10 06:14:24;;;;;;;0.10;0.10;;;;;;;7.67;76.99;98879.38;7362960;19;20018;-58
2023/11/10 06:16:49;;;;;;;0.03;0.03;;;;;;;7.63;76.79;98872.59;7367214;19;20011;-57
2023/11/10 06:19:16;;;;;;;0.10;0.10;;;;;;;7.69;76.78;98880.13;7364432;19;20527;-57
2023/11/10 06:21:41;;;;;;;0.10;0.10;;;;;;;7.69;77.32;98888.78;7370462;19;20010;-57
2023/11/10 06:24:08;;;;;;;0.00;0.00;;;;;;;7.70;77.32;98895.66;7372809;19;20011;-57
2023/11/10 06:26:35;;;;;;;0.10;0.10;;;;;;;7.74;77.47;98901.59;7362414;19;20017;-58
2023/11/10 06:29:02;;;;;;;0.10;0.10;;;;;;;7.78;77.06;98895.38;7367443;19;20108;-58
2023/11/10 06:31:27;;;;;;;0.10;0.10;;;;;;;7.77;77.20;98901.47;7361136;19;20782;-59
2023/11/10 06:33:53;;;;;;;0.10;0.10;;;;;;;7.79;77.35;98910.03;7364854;19;20580;-56
2023/11/10 06:36:19;;;;;;;0.00;0.00;;;;;;;7.80;77.11;98928.16;7358583;19;20811;-57
2023/11/10 06:38:45;;;;;;;0.10;0.10;;;;;;;7.79;77.01;98938.63;7366162;19;20384;-58
2023/11/10 06:41:11;;;;;;;0.10;0.10;;;;;;;7.76;77.32;98938.75;7371477;19;20014;-58
2023/11/10 06:43:38;;;;;;;0.00;0.00;;;;;;;7.77;76.89;98961.22;7370912;19;20037;-56
2023/11/10 06:46:04;;;;;;;0.00;0.00;;;;;;;7.71;76.75;98958.88;7366093;19;20014;-57
2023/11/10 06:48:29;;;;;;;0.00;0.00;;;;;;;7.71;77.34;98977.06;7361127;19;20030;-58
2023/11/10 06:50:55;;;;;;;0.10;0.10;;;;;;;7.66;77.01;98986.78;7365383;19;20025;-58
2023/11/10 06:53:20;;;;;;;0.00;0.00;;;;;;;7.64;77.30;98979.03;7364220;19;20046;-58
2023/11/10 06:55:45;;;;;;;0.08;0.08;;;;;;;7.31;77.18;98941.38;7366650;19;20010;-57
2023/11/10 06:58:11;;;;;;;0.10;0.10;;;;;;;7.61;77.22;98994.75;7359884;19;20364;-58
2023/11/10 07:00:38;;;;;;;0.08;0.08;;;;;;;7.50;77.46;98992.56;7365678;19;20002;-59
2023/11/10 07:03:11;;;;;;;0.10;0.10;;;;;;;7.58;77.64;99009.59;7362403;19;20010;-58
2023/11/10 07:05:37;;;;;;;0.03;0.03;;;;;;;7.54;77.73;99009.69;7365016;19;20709;-56
2023/11/10 07:08:09;;;;;;;0.00;0.00;;;;;;;7.56;77.56;99016.63;7364651;19;20012;-58
2023/11/10 07:10:41;;;;;;;0.10;0.10;;;;;;;7.55;77.56;99026.13;7361215;19;20007;-58
2023/11/10 07:13:07;;;;;;;0.00;0.00;;;;;;;7.48;77.67;99027.28;7362072;19;20022;-58
2023/11/10 07:15:33;;;;;;;0.10;0.10;;;;;;;7.50;77.88;99039.31;7365955;19;20658;-56
2023/11/10 07:18:00;;;;;;;0.08;0.08;;;;;;;7.49;77.54;99050.59;7360206;19;20011;-57
2023/11/10 07:20:26;;;;;;;0.00;0.00;;;;;;;7.45;77.80;99045.56;7368865;19;20031;-58
2023/11/10 07:22:52;;;;;;;0.10;0.10;;;;;;;7.43;77.70;99053.41;7365129;19;20895;-55
2023/11/10 07:25:18;;;;;;;0.00;0.00;;;;;;;7.42;77.82;99062.13;7365162;19;20091;-56
2023/11/10 07:27:43;;;;;;;0.10;0.10;;;;;;;7.40;77.78;99063.94;7363107;19;20011;-59
2023/11/10 07:30:09;;;;;;;0.03;0.03;;;;;;;7.26;77.97;99054.03;7369929;19;20025;-57
2023/11/10 07:32:35;;;;;;;0.03;0.03;;;;;;;7.31;77.99;99084.19;7366748;19;20014;-56
2023/11/10 07:35:03;;;;;;;0.00;0.00;;;;;;;7.16;77.69;99064.78;7365313;19;20018;-58
2023/11/10 07:37:34;;;;;;;0.00;0.00;;;;;;;7.25;78.03;99103.41;7360056;19;20567;-58
2023/11/10 07:40:00;;;;;;;0.10;0.10;;;;;;;7.13;77.98;99096.88;7362591;19;20017;-58
2023/11/10 07:42:25;;;;;;;0.00;0.00;;;;;;;7.22;77.80;99132.06;7359852;19;20375;-57
2023/11/10 07:44:51;;;;;;;0.00;0.00;;;;;;;7.20;77.70;99139.06;7363866;19;20095;-58
2023/11/10 07:47:16;;;;;;;0.10;0.10;;;;;;;7.16;77.61;99140.91;7363791;19;20029;-59
2023/11/10 07:49:42;;;;;;;0.10;0.10;;;;;;;7.14;77.85;99134.91;7364851;19;20002;-58
2023/11/10 07:52:09;;;;;;;0.00;0.00;;;;;;;7.12;77.29;99135.88;7368644;19;20505;-58
2023/11/10 07:54:34;;;;;;;0.03;0.03;;;;;;;7.11;77.18;99148.00;7367566;19;20345;-58
2023/11/10 07:57:00;;;;;;;0.03;0.03;;;;;;;7.05;77.54;99139.59;7360601;19;20465;-57
2023/11/10 07:59:26;;;;;;;0.00;0.00;;;;;;;6.97;77.70;99138.06;7368899;19;20010;-58
2023/11/10 08:01:52;;;;;;;0.05;0.05;;;;;;;6.97;77.50;99148.47;7368315;19;20011;-58
2023/11/10 08:04:17;;;;;;;0.05;0.05;;;;;;;6.98;77.54;99159.69;7358752;19;20010;-57
2023/11/10 08:06:43;;;;;;;0.03;0.03;;;;;;;7.02;77.55;99172.50;7357426;19;19999;-57
2023/11/10 08:09:11;;;;;;;0.10;0.10;;;;;;;7.00;77.52;99174.31;7358422;19;20010;-58
2023/11/10 08:11:37;;;;;;;0.00;0.00;;;;;;;6.87;77.40;99167.81;7362888;19;20557;-56
2023/11/10 08:14:03;;;;;;;0.00;0.00;;;;;;;6.99;77.22;99192.50;7361289;19;20048;-56
2023/11/10 08:16:29;;;;;;;0.10;0.10;;;;;;;6.98;77.28;99202.06;7363882;19;20015;-57
2023/11/10 08:18:55;;;;;;;0.10;0.10;;;;;;;6.96;77.40;99203.88;7358872;19;20010;-58
2023/11/10 08:21:21;;;;;;;0.10;0.10;;;;;;;6.94;77.58;99210.81;7363324;19;20018;-59
2023/11/10 08:23:46;;;;;;;0.10;0.10;;;;;;;6.95;77.50;99220.34;7357729;19;20005;-57
2023/11/10 08:26:13;;;;;;;0.05;0.05;;;;;;;6.97;77.51;99225.47;7358989;19;20011;-57
2023/11/10 08:28:39;;;;;;;0.00;0.00;;;;;;;6.95;77.75;99228.13;7368629;19;20706;-58
2023/11/10 08:31:04;;;;;;;0.10;0.10;;;;;;;6.92;77.81;99238.59;7360506;19;20018;-58
2023/11/10 08:33:30;;;;;;;0.00;0.00;;;;;;;6.96;77.82;99250.56;7362724;19;20366;-58
2023/11/10 08:35:56;;;;;;;0.10;0.10;;;;;;;6.90;77.71;99250.78;7356778;19;20015;-58
2023/11/10 08:38:22;;;;;;;0.00;0.00;;;;;;;6.85;77.99;99247.47;7365562;19;20098;-58
2023/11/10 08:40:48;;;;;;;0.10;0.10;;;;;;;6.96;77.75;99279.13;7367063;19;20570;-58
2023/11/10 08:43:14;;;;;;;0.10;0.10;;;;;;;6.91;77.81;99275.81;7370201;19;20006;-56
2023/11/10 08:45:39;;;;;;;0.10;0.10;;;;;;;6.96;77.65;99286.06;7366421;19;20017;-56
2023/11/10 08:48:05;;;;;;;0.00;0.00;;;;;;;6.84;77.95;99273.44;7361206;19;20006;-58
2023/11/10 08:50:31;;;;;;;0.10;0.10;;;;;;;6.99;77.74;99292.00;7364225;19;20025;-57
2023/11/10 08:52:56;;;;;;;0.00;0.00;;;;;;;7.03;78.29;99298.78;7361231;19;20463;-57
2023/11/10 08:55:22;;;;;;;0.10;0.10;;;;;;;7.04;78.09;99304.81;7362406;19;20003;-57
2023/11/10 08:57:49;;;;;;;0.00;0.00;;;;;;;7.22;77.86;99313.81;7333794;19;20906;-58
2023/11/10 09:00:16;;;;;;;0.10;0.10;;;;;;;7.36;78.05;99315.97;7364419;19;20685;-58
2023/11/10 09:02:43;;;;;;;;;;;;;;;7.60;77.77;99319.50;7354359;19;20019;-58
2023/11/10 09:05:12;;;;;;;0.10;0.10;;;;;;;7.75;77.46;99311.22;7362573;19;20374;-57
2023/11/10 09:07:39;;;;;;;0.10;0.10;;;;;;;7.96;77.28;99318.31;7360366;19;20011;-58
2023/11/10 09:10:11;;;;;;;0.00;0.00;;;;;;;8.14;77.04;99315.97;7363130;19;20035;-58
2023/11/10 09:12:40;;;;;;;0.10;0.10;;;;;;;8.44;77.00;99321.88;7362477;19;20034;-58
2023/11/10 09:15:07;;;;;;;0.05;0.05;;;;;;;8.64;76.44;99337.59;7359034;19;20467;-59
2023/11/10 09:17:32;;;;;;;0.10;0.10;;;;;;;8.87;76.01;99331.56;7358749;19;20027;-57
2023/11/10 09:19:58;;;;;;;0.00;0.00;;;;;;;9.10;75.79;99331.50;7365137;19;20010;-57
2023/11/10 09:22:23;;;;;;;0.00;0.00;;;;;;;9.34;75.22;99336.69;7364683;19;20021;-57
2023/11/10 09:24:49;;;;;;;0.10;0.10;;;;;;;9.55;75.08;99333.22;7359959;19;20006;-57
2023/11/10 09:27:14;;;;;;;0.10;0.10;;;;;;;9.77;74.94;99337.53;7358692;19;20011;-57
2023/11/10 09:29:40;;;;;;;0.00;0.00;;;;;;;9.98;74.21;99341.84;7360573;19;20018;-57
2023/11/10 09:32:10;;;;;;;0.10;0.10;;;;;;;10.21;73.72;99347.88;7357046;19;20321;-58
2023/11/10 09:34:37;;;;;;;0.10;0.10;;;;;;;10.40;73.67;99354.03;7358668;19;20341;-57
2023/11/10 09:37:04;;;;;;;0.00;0.00;;;;;;;10.59;73.24;99347.09;7362341;19;21198;-57
2023/11/10 09:39:29;;;;;;;0.10;0.10;;;;;;;10.80;72.57;99347.06;7365131;19;20011;-58
2023/11/10 09:41:59;;;;;;;0.10;0.10;;;;;;;11.02;72.50;99350.38;7362377;19;20086;-57
2023/11/10 09:44:26;;;;;;;0.10;0.10;;;;;;;11.23;71.98;99352.91;7365356;19;20014;-57
2023/11/10 09:46:51;;;;;;;0.00;0.00;;;;;;;11.42;71.78;99348.50;7366328;19;20022;-57
2023/11/10 09:49:18;;;;;;;0.00;0.00;;;;;;;11.63;71.40;99350.06;7365311;19;20948;-58
2023/11/10 09:51:45;;;;;;;0.10;0.10;;;;;;;11.85;70.61;99352.50;7365323;19;20014;-58
2023/11/10 09:54:11;;;;;;;0.10;0.10;;;;;;;12.04;70.40;99365.53;7363370;19;20018;-59
2023/11/10 09:56:38;;;;;;;0.10;0.10;;;;;;;12.30;70.17;99365.97;7366708;19;20014;-58
2023/11/10 09:59:06;;;;;;;0.10;0.10;;;;;;;12.55;69.99;99366.41;7363423;19;20018;-57
2023/11/10 10:01:31;;;;;;;;;;;;;;;12.87;71.99;99369.94;7367522;19;20624;-57
2023/11/10 10:03:56;;;;;;;0.10;0.10;;;;;;;12.96;69.26;99377.31;7365964;19;19923;-57
2023/11/10 10:06:22;;;;;;;0.10;0.10;;;;;;;13.15;68.52;99371.09;7366230;19;20014;-57
2023/11/10 10:08:48;;;;;;;0.10;0.10;;;;;;;13.32;68.53;99378.91;7372469;19;20013;-59
2023/11/10 10:11:14;;;;;;;0.00;0.00;;;;;;;13.50;68.73;99377.03;7358989;19;20014;-58
2023/11/10 10:13:41;;;;;;;0.10;0.10;;;;;;;13.68;67.92;99389.09;7363039;19;20018;-57
2023/11/10 10:16:11;;;;;;;0.10;0.10;;;;;;;13.91;68.78;99398.31;7359850;19;20641;-57
2023/11/10 10:18:43;;;;;;;0.10;0.10;;;;;;;13.98;67.94;99383.06;7368116;19;20458;-58
2023/11/10 10:21:09;;;;;;;0.10;0.10;;;;;;;14.17;67.47;99399.44;7365632;19;20802;-59
2023/11/10 10:23:35;;;;;;;0.10;0.10;;;;;;;14.25;68.27;99391.97;7367999;19;20007;-57
2023/11/10 10:26:04;;;;;;;0.10;0.10;;;;;;;14.41;67.48;99398.94;7366931;19;20014;-59
2023/11/10 10:28:30;;;;;;;0.10;0.10;;;;;;;14.60;67.74;99410.09;7367257;19;20460;-57
2023/11/10 10:30:56;;;;;;;0.10;0.10;;;;;;;14.74;67.11;99417.13;7365013;19;20006;-58
2023/11/10 10:33:22;;;;;;;0.10;0.10;;;;;;;14.87;67.23;99430.38;7365659;19;20019;-57
2023/11/10 10:35:48;;;;;;;0.10;0.10;;;;;;;15.02;67.15;99429.44;7364144;19;20014;-57
2023/11/10 10:38:17;;;;;;;0.10;0.10;;;;;;;15.14;67.13;99428.66;7373117;19;20066;-58
2023/11/10 10:40:43;;;;;;;0.10;0.10;;;;;;;15.31;66.52;99436.38;7365607;19;20526;-57
2023/11/10 10:43:09;;;;;;;0.10;0.10;;;;;;;15.43;66.65;99439.16;7364533;19;20025;-58
2023/11/10 10:45:36;;;;;;;0.10;0.10;;;;;;;15.57;66.41;99437.38;7364692;19;20014;-57
2023/11/10 10:48:04;;;;;;;0.10;0.10;;;;;;;15.79;66.56;99447.38;7345074;19;20631;-58
2023/11/10 10:50:30;;;;;;;;;;;;;;;16.10;68.68;99455.94;7373047;19;20031;-58
2023/11/10 10:52:57;;;;;;;0.10;0.10;;;;;;;16.11;66.13;99462.88;7371943;19;19920;-57
2023/11/10 10:55:23;;;;;;;0.05;0.05;;;;;;;16.23;65.88;99467.38;7370659;19;20010;-58
2023/11/10 10:57:50;;;;;;;0.10;0.10;;;;;;;16.33;65.27;99473.72;7362299;19;20018;-58
2023/11/10 11:00:19;;;;;;;0.10;0.10;;;;;;;16.51;65.43;99473.44;7371210;19;20031;-56
2023/11/10 11:02:53;;;;;;;0.10;0.10;;;;;;;16.72;65.97;99469.38;7359814;19;20006;-56
2023/11/10 11:05:56;;;;;;;0.10;0.10;;;;;;;16.93;66.72;99467.09;7363030;19;20039;-58
2023/11/10 11:08:27;;;;;;;0.10;0.10;;;;;;;17.10;65.23;99476.47;7365711;19;20078;-58
2023/11/10 11:11:23;;;;;;;0.10;0.10;;;;;;;17.25;65.56;99478.06;7360713;19;20424;-57
2023/11/10 11:14:26;;;;;;;0.17;0.17;;;;;;;17.49;66.50;99482.56;7366060;19;20030;-58
2023/11/10 11:17:03;;;;;;;0.10;0.10;;;;;;;17.59;64.80;99480.97;7365125;19;20014;-57
2023/11/10 11:19:33;;;;;;;0.10;0.10;;;;;;;17.79;65.00;99482.19;7358928;19;20861;-56
2023/11/10 11:21:59;;;;;;;0.10;0.10;;;;;;;17.88;63.85;99492.94;7363814;19;20014;-58
2023/11/10 11:24:25;;;;;;;0.10;0.10;;;;;;;17.94;63.99;99469.66;7362936;19;20015;-57
2023/11/10 11:26:58;;;;;;;0.10;0.10;;;;;;;18.26;63.71;99491.09;7365782;19;20475;-56
2023/11/10 11:29:25;;;;;;;0.10;0.10;;;;;;;18.32;63.76;99486.19;7358536;19;20015;-58
2023/11/10 11:31:51;;;;;;;0.10;0.10;;;;;;;18.45;63.24;99487.91;7365019;19;20042;-57
2023/11/10 11:34:21;;;;;;;0.20;0.20;;;;;;;18.65;63.64;99492.56;7359553;19;20826;-56
2023/11/10 11:36:48;;;;;;;0.10;0.10;;;;;;;18.76;62.88;99495.28;7364837;19;20010;-57
2023/11/10 11:39:16;;;;;;;0.10;0.10;;;;;;;18.88;62.73;99494.34;7356529;19;20010;-57